sensor_id;sensor_type;location;lat;lon;timestamp;P1;durP1;ratioP1;P2;durP2;ratioP2
11496;SDS011;5805;51.542;7.230;2023-04-03T00:00:19;3.97;;;3.07;;
11496;SDS011;5805;51.542;7.230;2023-04-03T00:02:45;6.25;;;3.70;;
11496;SDS011;5805;51.542;7.230;2023-04-03T00:05:11;5.03;;;3.40;;
11496;SDS011;5805;51.542;7.230;2023-04-03T00:07:37;3.53;;;2.80;;
11496;SDS011;5805;51.542;7.230;2023-04-03T00:10:03;4.10;;;3.00;;
11496;SDS011;5805;51.542;7.230;2023-04-03T00:12:29;4.53;;;3.58;;
11496;SDS011;5805;51.542;7.230;2023-04-03T00:14:55;4.82;;;3.35;;
11496;SDS011;5805;51.542;7.230;2023-04-03T00:17:22;4.33;;;3.27;;
11496;SDS011;5805;51.542;7.230;2023-04-03T00:19:47;4.80;;;3.13;;
11496;SDS011;5805;51.542;7.230;2023-04-03T00:22:13;5.57;;;3.60;;
11496;SDS011;5805;51.542;7.230;2023-04-03T00:24:39;4.07;;;3.00;;
11496;SDS011;5805;51.542;7.230;2023-04-03T00:27:04;5.03;;;3.40;;
11496;SDS011;5805;51.542;7.230;2023-04-03T00:29:30;4.73;;;3.27;;
11496;SDS011;5805;51.542;7.230;2023-04-03T00:31:56;5.73;;;3.70;;
11496;SDS011;5805;51.542;7.230;2023-04-03T00:34:23;7.67;;;4.20;;
11496;SDS011;5805;51.542;7.230;2023-04-03T00:36:50;7.33;;;3.90;;
11496;SDS011;5805;51.542;7.230;2023-04-03T00:39:15;6.43;;;4.00;;
11496;SDS011;5805;51.542;7.230;2023-04-03T00:41:41;5.00;;;3.43;;
11496;SDS011;5805;51.542;7.230;2023-04-03T00:44:23;4.57;;;3.63;;
11496;SDS011;5805;51.542;7.230;2023-04-03T00:47:26;6.07;;;4.17;;
11496;SDS011;5805;51.542;7.230;2023-04-03T00:49:54;5.93;;;3.80;;
11496;SDS011;5805;51.542;7.230;2023-04-03T00:52:21;8.03;;;3.80;;
11496;SDS011;5805;51.542;7.230;2023-04-03T00:54:52;5.27;;;4.00;;
11496;SDS011;5805;51.542;7.230;2023-04-03T00:57:22;5.57;;;3.83;;
11496;SDS011;5805;51.542;7.230;2023-04-03T00:59:50;7.17;;;4.33;;
11496;SDS011;5805;51.542;7.230;2023-04-03T01:02:20;5.40;;;3.80;;
11496;SDS011;5805;51.542;7.230;2023-04-03T01:04:46;5.77;;;4.00;;
11496;SDS011;5805;51.542;7.230;2023-04-03T01:07:14;7.80;;;4.20;;
11496;SDS011;5805;51.542;7.230;2023-04-03T01:09:42;6.63;;;3.80;;
11496;SDS011;5805;51.542;7.230;2023-04-03T01:12:12;4.77;;;3.77;;
11496;SDS011;5805;51.542;7.230;2023-04-03T01:14:39;5.60;;;4.10;;
11496;SDS011;5805;51.542;7.230;2023-04-03T01:19:52;4.67;;;3.37;;
11496;SDS011;5805;51.542;7.230;2023-04-03T01:22:34;5.00;;;3.23;;
11496;SDS011;5805;51.542;7.230;2023-04-03T01:25:11;4.53;;;3.07;;
11496;SDS011;5805;51.542;7.230;2023-04-03T01:27:37;4.57;;;3.17;;
11496;SDS011;5805;51.542;7.230;2023-04-03T01:30:03;5.50;;;3.40;;
11496;SDS011;5805;51.542;7.230;2023-04-03T01:32:31;4.67;;;3.43;;
11496;SDS011;5805;51.542;7.230;2023-04-03T01:34:56;3.93;;;2.93;;
11496;SDS011;5805;51.542;7.230;2023-04-03T01:37:22;6.40;;;3.00;;
11496;SDS011;5805;51.542;7.230;2023-04-03T01:39:48;4.77;;;3.30;;
11496;SDS011;5805;51.542;7.230;2023-04-03T01:42:13;6.70;;;2.97;;
11496;SDS011;5805;51.542;7.230;2023-04-03T01:44:39;5.03;;;3.10;;
11496;SDS011;5805;51.542;7.230;2023-04-03T01:47:05;3.37;;;2.50;;
11496;SDS011;5805;51.542;7.230;2023-04-03T01:49:32;3.53;;;2.43;;
11496;SDS011;5805;51.542;7.230;2023-04-03T01:51:58;2.93;;;2.10;;
11496;SDS011;5805;51.542;7.230;2023-04-03T01:54:24;2.63;;;2.20;;
11496;SDS011;5805;51.542;7.230;2023-04-03T01:56:49;4.73;;;2.20;;
11496;SDS011;5805;51.542;7.230;2023-04-03T01:59:15;3.80;;;2.27;;
11496;SDS011;5805;51.542;7.230;2023-04-03T02:01:41;2.90;;;2.00;;
11496;SDS011;5805;51.542;7.230;2023-04-03T02:04:07;2.83;;;1.70;;
11496;SDS011;5805;51.542;7.230;2023-04-03T02:06:34;5.40;;;2.00;;
11496;SDS011;5805;51.542;7.230;2023-04-03T02:08:59;2.20;;;1.80;;
11496;SDS011;5805;51.542;7.230;2023-04-03T02:11:25;3.03;;;1.60;;
11496;SDS011;5805;51.542;7.230;2023-04-03T02:13:51;3.43;;;1.87;;
11496;SDS011;5805;51.542;7.230;2023-04-03T02:16:16;3.47;;;1.67;;
11496;SDS011;5805;51.542;7.230;2023-04-03T02:18:42;3.43;;;1.50;;
11496;SDS011;5805;51.542;7.230;2023-04-03T02:21:08;3.10;;;1.67;;
11496;SDS011;5805;51.542;7.230;2023-04-03T02:23:35;3.57;;;1.57;;
11496;SDS011;5805;51.542;7.230;2023-04-03T02:26:05;3.10;;;1.67;;
11496;SDS011;5805;51.542;7.230;2023-04-03T02:28:32;6.43;;;1.90;;
11496;SDS011;5805;51.542;7.230;2023-04-03T02:30:57;3.33;;;1.53;;
11496;SDS011;5805;51.542;7.230;2023-04-03T02:33:23;5.13;;;1.70;;
11496;SDS011;5805;51.542;7.230;2023-04-03T02:35:51;1.90;;;1.50;;
11496;SDS011;5805;51.542;7.230;2023-04-03T02:38:18;2.87;;;1.50;;
11496;SDS011;5805;51.542;7.230;2023-04-03T02:40:45;5.07;;;1.57;;
11496;SDS011;5805;51.542;7.230;2023-04-03T02:43:10;3.20;;;1.77;;
11496;SDS011;5805;51.542;7.230;2023-04-03T02:45:36;2.23;;;1.20;;
11496;SDS011;5805;51.542;7.230;2023-04-03T02:48:02;3.63;;;1.50;;
11496;SDS011;5805;51.542;7.230;2023-04-03T02:50:28;3.17;;;1.33;;
11496;SDS011;5805;51.542;7.230;2023-04-03T02:52:53;6.60;;;2.10;;
11496;SDS011;5805;51.542;7.230;2023-04-03T02:55:19;1.97;;;1.20;;
11496;SDS011;5805;51.542;7.230;2023-04-03T02:57:46;2.87;;;1.40;;
11496;SDS011;5805;51.542;7.230;2023-04-03T03:00:12;2.43;;;1.20;;
11496;SDS011;5805;51.542;7.230;2023-04-03T03:02:38;3.53;;;1.47;;
11496;SDS011;5805;51.542;7.230;2023-04-03T03:05:04;3.23;;;1.30;;
11496;SDS011;5805;51.542;7.230;2023-04-03T03:07:30;2.40;;;1.43;;
11496;SDS011;5805;51.542;7.230;2023-04-03T03:09:55;3.60;;;1.43;;
11496;SDS011;5805;51.542;7.230;2023-04-03T03:12:21;1.70;;;1.30;;
11496;SDS011;5805;51.542;7.230;2023-04-03T03:14:49;2.73;;;1.50;;
11496;SDS011;5805;51.542;7.230;2023-04-03T03:17:15;3.33;;;1.33;;
11496;SDS011;5805;51.542;7.230;2023-04-03T03:19:41;3.47;;;1.37;;
11496;SDS011;5805;51.542;7.230;2023-04-03T03:22:07;3.80;;;1.57;;
11496;SDS011;5805;51.542;7.230;2023-04-03T03:24:32;3.67;;;1.27;;
11496;SDS011;5805;51.542;7.230;2023-04-03T03:26:58;2.60;;;1.47;;
11496;SDS011;5805;51.542;7.230;2023-04-03T03:29:24;3.57;;;1.50;;
11496;SDS011;5805;51.542;7.230;2023-04-03T03:31:51;4.43;;;1.60;;
11496;SDS011;5805;51.542;7.230;2023-04-03T03:34:16;2.53;;;1.37;;
11496;SDS011;5805;51.542;7.230;2023-04-03T03:36:42;3.13;;;1.70;;
11496;SDS011;5805;51.542;7.230;2023-04-03T03:39:08;1.33;;;0.97;;
11496;SDS011;5805;51.542;7.230;2023-04-03T03:41:34;2.27;;;1.20;;
11496;SDS011;5805;51.542;7.230;2023-04-03T03:44:00;5.13;;;1.67;;
11496;SDS011;5805;51.542;7.230;2023-04-03T03:46:26;2.57;;;1.27;;
11496;SDS011;5805;51.542;7.230;2023-04-03T03:48:53;1.90;;;1.13;;
11496;SDS011;5805;51.542;7.230;2023-04-03T03:51:19;4.00;;;1.40;;
11496;SDS011;5805;51.542;7.230;2023-04-03T03:53:44;2.57;;;1.20;;
11496;SDS011;5805;51.542;7.230;2023-04-03T03:56:10;3.67;;;1.23;;
11496;SDS011;5805;51.542;7.230;2023-04-03T03:58:36;4.43;;;1.60;;
11496;SDS011;5805;51.542;7.230;2023-04-03T04:01:02;3.90;;;1.37;;
11496;SDS011;5805;51.542;7.230;2023-04-03T04:03:28;1.60;;;1.37;;
11496;SDS011;5805;51.542;7.230;2023-04-03T04:05:55;3.57;;;1.63;;
11496;SDS011;5805;51.542;7.230;2023-04-03T04:08:21;3.23;;;1.20;;
11496;SDS011;5805;51.542;7.230;2023-04-03T04:10:47;3.57;;;1.40;;
11496;SDS011;5805;51.542;7.230;2023-04-03T04:13:13;2.63;;;1.23;;
11496;SDS011;5805;51.542;7.230;2023-04-03T04:15:38;4.40;;;1.37;;
11496;SDS011;5805;51.542;7.230;2023-04-03T04:18:04;5.43;;;1.67;;
11496;SDS011;5805;51.542;7.230;2023-04-03T04:20:30;3.73;;;1.43;;
11496;SDS011;5805;51.542;7.230;2023-04-03T04:22:57;2.43;;;1.03;;
11496;SDS011;5805;51.542;7.230;2023-04-03T04:25:22;2.17;;;1.33;;
11496;SDS011;5805;51.542;7.230;2023-04-03T04:27:48;2.47;;;1.20;;
11496;SDS011;5805;51.542;7.230;2023-04-03T04:30:14;2.57;;;1.30;;
11496;SDS011;5805;51.542;7.230;2023-04-03T04:32:39;4.23;;;1.67;;
11496;SDS011;5805;51.542;7.230;2023-04-03T04:35:05;5.83;;;1.50;;
11496;SDS011;5805;51.542;7.230;2023-04-03T04:37:32;2.50;;;1.33;;
11496;SDS011;5805;51.542;7.230;2023-04-03T04:39:59;5.17;;;1.40;;
11496;SDS011;5805;51.542;7.230;2023-04-03T04:42:25;3.33;;;1.57;;
11496;SDS011;5805;51.542;7.230;2023-04-03T04:44:50;4.40;;;1.50;;
11496;SDS011;5805;51.542;7.230;2023-04-03T04:47:16;4.20;;;1.73;;
11496;SDS011;5805;51.542;7.230;2023-04-03T04:49:42;4.23;;;2.00;;
11496;SDS011;5805;51.542;7.230;2023-04-03T04:52:07;2.53;;;1.50;;
11496;SDS011;5805;51.542;7.230;2023-04-03T04:54:33;3.10;;;1.33;;
11496;SDS011;5805;51.542;7.230;2023-04-03T04:57:00;2.70;;;1.23;;
11496;SDS011;5805;51.542;7.230;2023-04-03T04:59:26;4.80;;;1.70;;
11496;SDS011;5805;51.542;7.230;2023-04-03T05:01:52;3.23;;;1.17;;
11496;SDS011;5805;51.542;7.230;2023-04-03T05:04:17;5.97;;;1.73;;
11496;SDS011;5805;51.542;7.230;2023-04-03T05:06:43;2.70;;;1.60;;
11496;SDS011;5805;51.542;7.230;2023-04-03T05:09:09;5.13;;;1.73;;
11496;SDS011;5805;51.542;7.230;2023-04-03T05:11:34;5.10;;;1.70;;
11496;SDS011;5805;51.542;7.230;2023-04-03T05:14:02;3.17;;;1.77;;
11496;SDS011;5805;51.542;7.230;2023-04-03T05:16:27;4.67;;;1.60;;
11496;SDS011;5805;51.542;7.230;2023-04-03T05:18:53;3.83;;;1.60;;
11496;SDS011;5805;51.542;7.230;2023-04-03T05:21:19;8.17;;;2.50;;
11496;SDS011;5805;51.542;7.230;2023-04-03T05:23:44;4.63;;;2.20;;
11496;SDS011;5805;51.542;7.230;2023-04-03T05:26:10;3.90;;;1.83;;
11496;SDS011;5805;51.542;7.230;2023-04-03T05:28:36;4.57;;;1.90;;
11496;SDS011;5805;51.542;7.230;2023-04-03T05:31:03;3.87;;;1.73;;
11496;SDS011;5805;51.542;7.230;2023-04-03T05:33:28;9.47;;;1.97;;
11496;SDS011;5805;51.542;7.230;2023-04-03T05:35:54;5.90;;;2.23;;
11496;SDS011;5805;51.542;7.230;2023-04-03T05:38:20;4.13;;;1.90;;
11496;SDS011;5805;51.542;7.230;2023-04-03T05:40:45;7.73;;;1.80;;
11496;SDS011;5805;51.542;7.230;2023-04-03T05:43:11;5.10;;;1.90;;
11496;SDS011;5805;51.542;7.230;2023-04-03T05:45:37;4.53;;;1.63;;
11496;SDS011;5805;51.542;7.230;2023-04-03T05:48:04;5.00;;;1.80;;
11496;SDS011;5805;51.542;7.230;2023-04-03T05:50:30;7.30;;;2.10;;
11496;SDS011;5805;51.542;7.230;2023-04-03T05:52:56;6.17;;;2.07;;
11496;SDS011;5805;51.542;7.230;2023-04-03T05:55:23;3.77;;;1.70;;
11496;SDS011;5805;51.542;7.230;2023-04-03T05:57:49;3.30;;;1.43;;
11496;SDS011;5805;51.542;7.230;2023-04-03T06:00:15;5.90;;;1.90;;
11496;SDS011;5805;51.542;7.230;2023-04-03T06:02:41;4.73;;;1.77;;
11496;SDS011;5805;51.542;7.230;2023-04-03T06:05:09;4.73;;;1.90;;
11496;SDS011;5805;51.542;7.230;2023-04-03T06:07:35;4.13;;;1.90;;
11496;SDS011;5805;51.542;7.230;2023-04-03T06:10:00;3.00;;;1.77;;
11496;SDS011;5805;51.542;7.230;2023-04-03T06:12:27;4.10;;;1.53;;
11496;SDS011;5805;51.542;7.230;2023-04-03T06:14:53;4.23;;;1.30;;
11496;SDS011;5805;51.542;7.230;2023-04-03T06:17:19;6.13;;;2.00;;
11496;SDS011;5805;51.542;7.230;2023-04-03T06:19:45;5.37;;;1.77;;
11496;SDS011;5805;51.542;7.230;2023-04-03T06:22:12;3.90;;;2.00;;
11496;SDS011;5805;51.542;7.230;2023-04-03T06:24:37;4.13;;;2.00;;
11496;SDS011;5805;51.542;7.230;2023-04-03T06:27:03;4.90;;;1.77;;
11496;SDS011;5805;51.542;7.230;2023-04-03T06:29:29;3.83;;;1.80;;
11496;SDS011;5805;51.542;7.230;2023-04-03T06:31:55;4.17;;;1.63;;
11496;SDS011;5805;51.542;7.230;2023-04-03T06:34:21;2.63;;;1.20;;
11496;SDS011;5805;51.542;7.230;2023-04-03T06:36:47;5.17;;;2.00;;
11496;SDS011;5805;51.542;7.230;2023-04-03T06:39:15;3.03;;;1.67;;
11496;SDS011;5805;51.542;7.230;2023-04-03T06:41:42;4.07;;;1.80;;
11496;SDS011;5805;51.542;7.230;2023-04-03T06:44:07;4.68;;;1.95;;
11496;SDS011;5805;51.542;7.230;2023-04-03T06:46:33;2.60;;;1.50;;
11496;SDS011;5805;51.542;7.230;2023-04-03T06:48:59;3.50;;;1.90;;
11496;SDS011;5805;51.542;7.230;2023-04-03T06:51:25;3.70;;;1.45;;
11496;SDS011;5805;51.542;7.230;2023-04-03T06:53:52;2.67;;;1.50;;
11496;SDS011;5805;51.542;7.230;2023-04-03T06:56:20;4.00;;;1.40;;
11496;SDS011;5805;51.542;7.230;2023-04-03T06:58:46;2.92;;;1.45;;
11496;SDS011;5805;51.542;7.230;2023-04-03T07:01:13;5.25;;;2.00;;
11496;SDS011;5805;51.542;7.230;2023-04-03T07:03:40;5.65;;;1.80;;
11496;SDS011;5805;51.542;7.230;2023-04-03T07:06:07;4.60;;;1.80;;
11496;SDS011;5805;51.542;7.230;2023-04-03T07:08:35;3.80;;;1.98;;
11496;SDS011;5805;51.542;7.230;2023-04-03T07:11:01;3.90;;;1.60;;
11496;SDS011;5805;51.542;7.230;2023-04-03T07:13:29;4.85;;;1.73;;
11496;SDS011;5805;51.542;7.230;2023-04-03T07:15:55;4.20;;;1.52;;
11496;SDS011;5805;51.542;7.230;2023-04-03T07:18:21;3.97;;;1.77;;
11496;SDS011;5805;51.542;7.230;2023-04-03T07:20:47;3.88;;;1.58;;
11496;SDS011;5805;51.542;7.230;2023-04-03T07:23:12;4.85;;;1.83;;
11496;SDS011;5805;51.542;7.230;2023-04-03T07:25:41;5.70;;;1.67;;
11496;SDS011;5805;51.542;7.230;2023-04-03T07:28:07;2.83;;;1.45;;
11496;SDS011;5805;51.542;7.230;2023-04-03T07:30:35;4.68;;;1.92;;
11496;SDS011;5805;51.542;7.230;2023-04-03T07:33:07;2.30;;;1.20;;
11496;SDS011;5805;51.542;7.230;2023-04-03T07:35:33;3.90;;;1.67;;
11496;SDS011;5805;51.542;7.230;2023-04-03T07:37:58;3.50;;;1.80;;
11496;SDS011;5805;51.542;7.230;2023-04-03T07:40:24;5.18;;;2.08;;
11496;SDS011;5805;51.542;7.230;2023-04-03T07:42:50;3.22;;;1.30;;
11496;SDS011;5805;51.542;7.230;2023-04-03T07:45:16;2.67;;;1.55;;
11496;SDS011;5805;51.542;7.230;2023-04-03T07:47:43;3.22;;;1.67;;
11496;SDS011;5805;51.542;7.230;2023-04-03T07:50:09;4.45;;;1.23;;
11496;SDS011;5805;51.542;7.230;2023-04-03T07:52:35;4.82;;;1.85;;
11496;SDS011;5805;51.542;7.230;2023-04-03T07:55:00;6.82;;;1.75;;
11496;SDS011;5805;51.542;7.230;2023-04-03T07:57:26;4.43;;;1.55;;
11496;SDS011;5805;51.542;7.230;2023-04-03T07:59:52;3.58;;;1.75;;
11496;SDS011;5805;51.542;7.230;2023-04-03T08:02:17;3.50;;;1.30;;
11496;SDS011;5805;51.542;7.230;2023-04-03T08:04:44;3.30;;;1.27;;
11496;SDS011;5805;51.542;7.230;2023-04-03T08:07:10;4.03;;;1.60;;
11496;SDS011;5805;51.542;7.230;2023-04-03T08:09:36;3.35;;;1.60;;
11496;SDS011;5805;51.542;7.230;2023-04-03T08:12:01;2.92;;;1.52;;
11496;SDS011;5805;51.542;7.230;2023-04-03T08:14:29;3.22;;;1.10;;
11496;SDS011;5805;51.542;7.230;2023-04-03T08:16:56;3.35;;;1.33;;
11496;SDS011;5805;51.542;7.230;2023-04-03T08:19:21;3.30;;;1.25;;
11496;SDS011;5805;51.542;7.230;2023-04-03T08:21:48;2.92;;;1.33;;
11496;SDS011;5805;51.542;7.230;2023-04-03T08:24:14;4.55;;;1.52;;
11496;SDS011;5805;51.542;7.230;2023-04-03T08:26:40;2.78;;;1.40;;
11496;SDS011;5805;51.542;7.230;2023-04-03T08:29:05;2.58;;;1.00;;
11496;SDS011;5805;51.542;7.230;2023-04-03T08:31:31;3.53;;;1.50;;
11496;SDS011;5805;51.542;7.230;2023-04-03T08:33:57;2.90;;;1.27;;
11496;SDS011;5805;51.542;7.230;2023-04-03T08:36:23;1.08;;;0.65;;
11496;SDS011;5805;51.542;7.230;2023-04-03T08:38:52;3.35;;;1.05;;
11496;SDS011;5805;51.542;7.230;2023-04-03T08:41:20;1.60;;;0.93;;
11496;SDS011;5805;51.542;7.230;2023-04-03T08:43:55;3.88;;;1.30;;
11496;SDS011;5805;51.542;7.230;2023-04-03T08:46:26;3.08;;;1.27;;
11496;SDS011;5805;51.542;7.230;2023-04-03T08:49:02;2.90;;;1.33;;
11496;SDS011;5805;51.542;7.230;2023-04-03T08:51:29;3.47;;;1.10;;
11496;SDS011;5805;51.542;7.230;2023-04-03T08:53:58;3.85;;;1.50;;
11496;SDS011;5805;51.542;7.230;2023-04-03T08:56:27;2.35;;;0.90;;
11496;SDS011;5805;51.542;7.230;2023-04-03T08:58:55;1.88;;;1.02;;
11496;SDS011;5805;51.542;7.230;2023-04-03T09:01:23;6.03;;;1.30;;
11496;SDS011;5805;51.542;7.230;2023-04-03T09:03:52;4.30;;;1.15;;
11496;SDS011;5805;51.542;7.230;2023-04-03T09:06:19;2.97;;;1.40;;
11496;SDS011;5805;51.542;7.230;2023-04-03T09:08:47;1.75;;;1.13;;
11496;SDS011;5805;51.542;7.230;2023-04-03T09:11:19;3.17;;;1.00;;
11496;SDS011;5805;51.542;7.230;2023-04-03T09:13:50;3.05;;;1.25;;
11496;SDS011;5805;51.542;7.230;2023-04-03T09:16:25;2.35;;;1.02;;
11496;SDS011;5805;51.542;7.230;2023-04-03T09:18:59;1.63;;;0.90;;
11496;SDS011;5805;51.542;7.230;2023-04-03T09:21:38;1.80;;;0.80;;
11496;SDS011;5805;51.542;7.230;2023-04-03T09:24:05;1.40;;;0.65;;
11496;SDS011;5805;51.542;7.230;2023-04-03T09:26:34;5.45;;;1.10;;
11496;SDS011;5805;51.542;7.230;2023-04-03T09:29:05;2.30;;;0.90;;
11496;SDS011;5805;51.542;7.230;2023-04-03T09:31:35;1.23;;;0.88;;
11496;SDS011;5805;51.542;7.230;2023-04-03T09:34:04;1.80;;;1.00;;
11496;SDS011;5805;51.542;7.230;2023-04-03T09:36:37;2.00;;;0.90;;
11496;SDS011;5805;51.542;7.230;2023-04-03T09:39:04;3.03;;;0.77;;
11496;SDS011;5805;51.542;7.230;2023-04-03T09:41:30;2.80;;;1.00;;
11496;SDS011;5805;51.542;7.230;2023-04-03T09:43:57;1.92;;;1.00;;
11496;SDS011;5805;51.542;7.230;2023-04-03T09:46:25;1.40;;;0.80;;
11496;SDS011;5805;51.542;7.230;2023-04-03T09:48:56;1.75;;;0.80;;
11496;SDS011;5805;51.542;7.230;2023-04-03T09:51:24;3.85;;;1.10;;
11496;SDS011;5805;51.542;7.230;2023-04-03T09:53:51;1.80;;;0.95;;
11496;SDS011;5805;51.542;7.230;2023-04-03T09:56:21;1.98;;;0.82;;
11496;SDS011;5805;51.542;7.230;2023-04-03T09:58:49;1.38;;;0.80;;
11496;SDS011;5805;51.542;7.230;2023-04-03T10:01:27;1.35;;;0.90;;
11496;SDS011;5805;51.542;7.230;2023-04-03T10:04:08;2.38;;;0.80;;
11496;SDS011;5805;51.542;7.230;2023-04-03T10:06:35;2.72;;;0.90;;
11496;SDS011;5805;51.542;7.230;2023-04-03T10:09:03;1.67;;;0.90;;
11496;SDS011;5805;51.542;7.230;2023-04-03T10:11:31;2.10;;;0.95;;
11496;SDS011;5805;51.542;7.230;2023-04-03T10:13:57;1.27;;;1.00;;
11496;SDS011;5805;51.542;7.230;2023-04-03T10:16:25;3.80;;;1.05;;
11496;SDS011;5805;51.542;7.230;2023-04-03T10:19:05;2.65;;;0.95;;
11496;SDS011;5805;51.542;7.230;2023-04-03T10:21:46;3.35;;;1.00;;
11496;SDS011;5805;51.542;7.230;2023-04-03T10:24:18;2.28;;;1.00;;
11496;SDS011;5805;51.542;7.230;2023-04-03T10:26:52;2.53;;;1.00;;
11496;SDS011;5805;51.542;7.230;2023-04-03T10:29:26;1.08;;;0.82;;
11496;SDS011;5805;51.542;7.230;2023-04-03T10:32:01;1.63;;;1.00;;
11496;SDS011;5805;51.542;7.230;2023-04-03T10:34:40;2.67;;;1.05;;
11496;SDS011;5805;51.542;7.230;2023-04-03T10:37:10;3.05;;;1.17;;
11496;SDS011;5805;51.542;7.230;2023-04-03T10:39:46;1.65;;;0.70;;
11496;SDS011;5805;51.542;7.230;2023-04-03T10:42:21;2.15;;;1.00;;
11496;SDS011;5805;51.542;7.230;2023-04-03T10:45:00;1.88;;;0.80;;
11496;SDS011;5805;51.542;7.230;2023-04-03T10:47:36;2.10;;;1.13;;
11496;SDS011;5805;51.542;7.230;2023-04-03T10:50:15;1.05;;;0.68;;
11496;SDS011;5805;51.542;7.230;2023-04-03T10:52:52;1.05;;;0.70;;
11496;SDS011;5805;51.542;7.230;2023-04-03T10:55:28;1.45;;;0.80;;
11496;SDS011;5805;51.542;7.230;2023-04-03T10:58:00;1.25;;;0.75;;
11496;SDS011;5805;51.542;7.230;2023-04-03T11:00:30;2.42;;;1.13;;
11496;SDS011;5805;51.542;7.230;2023-04-03T11:03:05;1.70;;;0.95;;
11496;SDS011;5805;51.542;7.230;2023-04-03T11:05:37;2.30;;;1.00;;
11496;SDS011;5805;51.542;7.230;2023-04-03T11:08:08;2.58;;;1.30;;
11496;SDS011;5805;51.542;7.230;2023-04-03T11:10:42;3.20;;;1.05;;
11496;SDS011;5805;51.542;7.230;2023-04-03T11:13:11;3.53;;;0.80;;
11496;SDS011;5805;51.542;7.230;2023-04-03T11:15:39;3.47;;;0.85;;
11496;SDS011;5805;51.542;7.230;2023-04-03T11:18:08;0.98;;;0.63;;
11496;SDS011;5805;51.542;7.230;2023-04-03T11:20:37;1.55;;;0.80;;
11496;SDS011;5805;51.542;7.230;2023-04-03T11:23:09;0.85;;;0.50;;
11496;SDS011;5805;51.542;7.230;2023-04-03T11:25:41;3.38;;;0.95;;
11496;SDS011;5805;51.542;7.230;2023-04-03T11:28:11;1.35;;;0.60;;
11496;SDS011;5805;51.542;7.230;2023-04-03T11:30:39;0.52;;;0.50;;
11496;SDS011;5805;51.542;7.230;2023-04-03T11:33:15;2.03;;;0.95;;
11496;SDS011;5805;51.542;7.230;2023-04-03T11:35:57;1.42;;;0.70;;
11496;SDS011;5805;51.542;7.230;2023-04-03T11:38:27;1.13;;;0.80;;
11496;SDS011;5805;51.542;7.230;2023-04-03T11:40:56;2.50;;;1.20;;
11496;SDS011;5805;51.542;7.230;2023-04-03T11:43:24;2.55;;;1.02;;
11496;SDS011;5805;51.542;7.230;2023-04-03T11:45:52;1.33;;;0.90;;
11496;SDS011;5805;51.542;7.230;2023-04-03T12:03:29;1.42;;;0.70;;
11496;SDS011;5805;51.542;7.230;2023-04-03T12:09:27;0.50;;;0.50;;
11496;SDS011;5805;51.542;7.230;2023-04-03T12:11:57;2.00;;;0.80;;
11496;SDS011;5805;51.542;7.230;2023-04-03T12:14:25;3.13;;;1.10;;
11496;SDS011;5805;51.542;7.230;2023-04-03T12:16:52;3.38;;;0.80;;
11496;SDS011;5805;51.542;7.230;2023-04-03T12:19:35;2.28;;;0.80;;
11496;SDS011;5805;51.542;7.230;2023-04-03T12:22:09;3.00;;;0.70;;
11496;SDS011;5805;51.542;7.230;2023-04-03T12:24:38;1.05;;;0.50;;
11496;SDS011;5805;51.542;7.230;2023-04-03T12:27:09;2.63;;;0.90;;
11496;SDS011;5805;51.542;7.230;2023-04-03T12:29:46;2.75;;;1.02;;
11496;SDS011;5805;51.542;7.230;2023-04-03T12:32:19;2.33;;;1.15;;
11496;SDS011;5805;51.542;7.230;2023-04-03T12:34:55;2.85;;;0.75;;
11496;SDS011;5805;51.542;7.230;2023-04-03T12:37:36;3.20;;;1.02;;
11496;SDS011;5805;51.542;7.230;2023-04-03T12:40:17;2.13;;;1.20;;
11496;SDS011;5805;51.542;7.230;2023-04-03T12:42:58;1.52;;;0.63;;
11496;SDS011;5805;51.542;7.230;2023-04-03T12:45:39;2.17;;;0.70;;
11496;SDS011;5805;51.542;7.230;2023-04-03T12:48:12;2.95;;;1.10;;
11496;SDS011;5805;51.542;7.230;2023-04-03T12:50:40;1.92;;;0.85;;
11496;SDS011;5805;51.542;7.230;2023-04-03T12:53:10;1.52;;;0.80;;
11496;SDS011;5805;51.542;7.230;2023-04-03T12:55:39;1.90;;;1.00;;
11496;SDS011;5805;51.542;7.230;2023-04-03T12:58:21;1.25;;;0.82;;
11496;SDS011;5805;51.542;7.230;2023-04-03T13:00:54;2.33;;;0.70;;
11496;SDS011;5805;51.542;7.230;2023-04-03T13:03:25;1.17;;;0.63;;
11496;SDS011;5805;51.542;7.230;2023-04-03T13:05:52;1.70;;;0.77;;
11496;SDS011;5805;51.542;7.230;2023-04-03T13:08:19;1.25;;;0.80;;
11496;SDS011;5805;51.542;7.230;2023-04-03T13:10:51;2.35;;;1.02;;
11496;SDS011;5805;51.542;7.230;2023-04-03T13:13:20;3.05;;;1.00;;
11496;SDS011;5805;51.542;7.230;2023-04-03T13:15:46;0.65;;;0.57;;
11496;SDS011;5805;51.542;7.230;2023-04-03T13:18:25;1.50;;;0.75;;
11496;SDS011;5805;51.542;7.230;2023-04-03T13:20:53;1.25;;;0.75;;
11496;SDS011;5805;51.542;7.230;2023-04-03T13:23:24;1.25;;;0.70;;
11496;SDS011;5805;51.542;7.230;2023-04-03T13:25:51;1.55;;;0.68;;
11496;SDS011;5805;51.542;7.230;2023-04-03T13:28:19;1.67;;;0.82;;
11496;SDS011;5805;51.542;7.230;2023-04-03T13:30:56;1.88;;;0.90;;
11496;SDS011;5805;51.542;7.230;2023-04-03T13:33:28;1.05;;;0.63;;
11496;SDS011;5805;51.542;7.230;2023-04-03T13:35:55;1.83;;;0.75;;
11496;SDS011;5805;51.542;7.230;2023-04-03T13:38:23;3.55;;;1.02;;
11496;SDS011;5805;51.542;7.230;2023-04-03T13:40:52;2.00;;;0.75;;
11496;SDS011;5805;51.542;7.230;2023-04-03T13:43:21;1.00;;;0.80;;
11496;SDS011;5805;51.542;7.230;2023-04-03T13:45:57;2.13;;;0.80;;
11496;SDS011;5805;51.542;7.230;2023-04-03T13:48:24;0.55;;;0.40;;
11496;SDS011;5805;51.542;7.230;2023-04-03T13:51:00;3.45;;;0.90;;
11496;SDS011;5805;51.542;7.230;2023-04-03T13:53:28;0.93;;;0.57;;
11496;SDS011;5805;51.542;7.230;2023-04-03T13:58:54;3.00;;;0.80;;
11496;SDS011;5805;51.542;7.230;2023-04-03T14:01:22;1.20;;;0.75;;
11496;SDS011;5805;51.542;7.230;2023-04-03T14:03:52;1.00;;;0.65;;
11496;SDS011;5805;51.542;7.230;2023-04-03T14:06:19;2.25;;;0.90;;
11496;SDS011;5805;51.542;7.230;2023-04-03T14:08:45;2.58;;;0.70;;
11496;SDS011;5805;51.542;7.230;2023-04-03T14:11:12;1.70;;;0.82;;
11496;SDS011;5805;51.542;7.230;2023-04-03T14:13:41;0.98;;;0.60;;
11496;SDS011;5805;51.542;7.230;2023-04-03T14:16:07;2.95;;;1.10;;
11496;SDS011;5805;51.542;7.230;2023-04-03T14:18:36;2.00;;;0.93;;
11496;SDS011;5805;51.542;7.230;2023-04-03T14:21:02;1.52;;;0.85;;
11496;SDS011;5805;51.542;7.230;2023-04-03T14:23:29;2.92;;;1.02;;
11496;SDS011;5805;51.542;7.230;2023-04-03T14:25:55;2.65;;;1.08;;
11496;SDS011;5805;51.542;7.230;2023-04-03T14:28:21;2.75;;;1.00;;
11496;SDS011;5805;51.542;7.230;2023-04-03T14:30:49;2.63;;;0.90;;
11496;SDS011;5805;51.542;7.230;2023-04-03T14:33:17;2.53;;;1.00;;
11496;SDS011;5805;51.542;7.230;2023-04-03T14:35:44;3.15;;;1.25;;
11496;SDS011;5805;51.542;7.230;2023-04-03T14:38:20;1.63;;;1.02;;
11496;SDS011;5805;51.542;7.230;2023-04-03T14:40:47;2.35;;;0.93;;
11496;SDS011;5805;51.542;7.230;2023-04-03T14:43:13;3.50;;;1.00;;
11496;SDS011;5805;51.542;7.230;2023-04-03T14:45:39;5.93;;;1.10;;
11496;SDS011;5805;51.542;7.230;2023-04-03T14:48:09;1.60;;;0.80;;
11496;SDS011;5805;51.542;7.230;2023-04-03T14:50:40;3.10;;;0.90;;
11496;SDS011;5805;51.542;7.230;2023-04-03T14:53:06;0.93;;;0.82;;
11496;SDS011;5805;51.542;7.230;2023-04-03T14:55:32;1.70;;;0.90;;
11496;SDS011;5805;51.542;7.230;2023-04-03T14:57:58;2.50;;;0.95;;
11496;SDS011;5805;51.542;7.230;2023-04-03T15:00:24;3.10;;;1.17;;
11496;SDS011;5805;51.542;7.230;2023-04-03T15:02:49;1.25;;;0.75;;
11496;SDS011;5805;51.542;7.230;2023-04-03T15:05:17;4.13;;;0.93;;
11496;SDS011;5805;51.542;7.230;2023-04-03T15:07:45;4.60;;;1.00;;
11496;SDS011;5805;51.542;7.230;2023-04-03T15:10:15;4.43;;;1.23;;
11496;SDS011;5805;51.542;7.230;2023-04-03T15:12:43;3.15;;;1.23;;
11496;SDS011;5805;51.542;7.230;2023-04-03T15:15:09;1.10;;;0.63;;
11496;SDS011;5805;51.542;7.230;2023-04-03T15:17:35;0.98;;;0.70;;
11496;SDS011;5805;51.542;7.230;2023-04-03T15:20:02;2.25;;;1.27;;
11496;SDS011;5805;51.542;7.230;2023-04-03T15:22:30;2.15;;;0.80;;
11496;SDS011;5805;51.542;7.230;2023-04-03T15:24:55;4.43;;;1.20;;
11496;SDS011;5805;51.542;7.230;2023-04-03T15:27:21;3.03;;;1.10;;
11496;SDS011;5805;51.542;7.230;2023-04-03T15:29:47;2.97;;;1.00;;